createdAt,value
2023-02-28T00:00:53.341Z,99.90
2023-02-28T00:03:20.335Z,99.90
2023-02-28T00:09:34.853Z,99.90
2023-02-28T00:12:10.934Z,99.90
2023-02-28T00:14:38.321Z,99.90
2023-02-28T00:17:05.371Z,99.90
2023-02-28T00:19:32.527Z,99.90
2023-02-28T00:21:59.465Z,99.90
2023-02-28T00:24:26.333Z,99.90
2023-02-28T00:26:53.311Z,99.90
2023-02-28T00:29:20.168Z,99.90
2023-02-28T00:31:46.997Z,99.90
2023-02-28T00:34:13.999Z,99.90
2023-02-28T00:36:44.728Z,99.90
2023-02-28T00:39:11.901Z,99.90
2023-02-28T00:41:38.799Z,99.90
2023-02-28T00:44:05.720Z,99.90
2023-02-28T00:46:32.838Z,99.90
2023-02-28T00:48:59.733Z,99.90
2023-02-28T00:51:26.815Z,99.90
2023-02-28T00:53:53.981Z,99.90
2023-02-28T00:56:21.777Z,99.90
2023-02-28T00:58:48.586Z,99.90
2023-02-28T01:01:15.448Z,99.90
2023-02-28T01:03:43.272Z,99.90
2023-02-28T01:06:10.144Z,99.90
2023-02-28T01:08:36.962Z,99.90
2023-02-28T01:11:11.611Z,99.90
2023-02-28T01:13:38.754Z,99.90
2023-02-28T01:16:06.429Z,99.90
2023-02-28T01:18:33.548Z,99.90
2023-02-28T01:21:10.356Z,99.90
2023-02-28T01:23:37.296Z,99.90
2023-02-28T01:26:09.048Z,99.90
2023-02-28T01:28:36.074Z,99.90
2023-02-28T01:31:03.064Z,99.90
2023-02-28T01:33:30.058Z,99.90
2023-02-28T01:36:01.008Z,99.90
2023-02-28T01:38:28.346Z,99.90
2023-02-28T01:40:57.722Z,99.90
2023-02-28T01:43:25.636Z,99.90
2023-02-28T01:45:53.821Z,99.90
2023-02-28T01:48:33.862Z,99.90
2023-02-28T01:51:03.607Z,99.90
2023-02-28T01:53:36.250Z,99.90
2023-02-28T01:56:04.317Z,99.90
2023-02-28T01:58:31.557Z,99.90
2023-02-28T02:00:58.502Z,99.90
2023-02-28T02:03:25.380Z,99.90
2023-02-28T02:05:55.380Z,99.90
2023-02-28T02:08:26.859Z,99.90
2023-02-28T02:10:57.948Z,99.90
2023-02-28T02:14:07.891Z,99.90
2023-02-28T02:17:01.257Z,99.90
2023-02-28T02:19:56.680Z,99.90
2023-02-28T02:22:55.475Z,99.90
2023-02-28T02:25:34.434Z,99.90
2023-02-28T02:28:39.167Z,99.90
2023-02-28T02:31:15.872Z,99.90
2023-02-28T02:34:19.686Z,99.90
2023-02-28T02:37:13.992Z,99.90
2023-02-28T02:39:52.515Z,99.90
2023-02-28T02:42:27.972Z,99.90
2023-02-28T02:45:08.636Z,99.90
2023-02-28T02:47:35.668Z,99.90
2023-02-28T02:50:06.486Z,99.90
2023-02-28T02:52:40.894Z,99.90
2023-02-28T02:55:08.308Z,99.90
2023-02-28T02:57:47.228Z,99.90
2023-02-28T03:00:14.560Z,99.90
2023-02-28T03:02:41.694Z,99.90
2023-02-28T03:05:24.529Z,99.90
2023-02-28T03:07:51.560Z,99.90
2023-02-28T03:10:30.886Z,99.90
2023-02-28T03:13:35.542Z,99.90
2023-02-28T03:16:08.611Z,99.90
2023-02-28T03:18:38.763Z,99.90
2023-02-28T03:21:43.518Z,99.90
2023-02-28T03:24:34.414Z,99.90
2023-02-28T03:27:28.431Z,99.90
2023-02-28T03:30:31.372Z,99.90
2023-02-28T03:33:02.880Z,99.90
2023-02-28T03:35:32.580Z,99.90
2023-02-28T03:38:17.482Z,99.90
2023-02-28T03:40:48.974Z,99.90
2023-02-28T03:43:19.623Z,99.90
2023-02-28T03:45:46.643Z,99.90
2023-02-28T03:48:18.756Z,99.90
2023-02-28T03:50:47.164Z,99.90
2023-02-28T03:53:24.453Z,99.90
2023-02-28T03:56:03.688Z,99.90
2023-02-28T03:58:47.270Z,99.90
2023-02-28T04:01:39.963Z,99.90
2023-02-28T04:04:06.778Z,99.90
2023-02-28T04:06:34.460Z,99.90
2023-02-28T04:09:01.440Z,99.90
2023-02-28T04:11:31.204Z,99.90
2023-02-28T04:13:58.336Z,99.90
2023-02-28T04:16:35.380Z,99.90
2023-02-28T04:19:07.246Z,99.90
2023-02-28T04:21:42.481Z,99.90
2023-02-28T04:24:14.986Z,99.90
2023-02-28T04:26:44.618Z,99.90
2023-02-28T04:29:12.871Z,99.90
2023-02-28T04:31:42.445Z,99.90
2023-02-28T04:34:09.311Z,99.90
2023-02-28T04:36:36.438Z,99.90
2023-02-28T04:39:05.014Z,99.90
2023-02-28T04:41:32.930Z,99.90
2023-02-28T04:44:00.100Z,99.90
2023-02-28T04:46:27.095Z,99.90
2023-02-28T04:48:55.415Z,99.90
2023-02-28T04:51:22.301Z,99.90
2023-02-28T04:53:49.372Z,99.90
2023-02-28T04:56:17.752Z,99.90
2023-02-28T04:58:45.300Z,99.90
2023-02-28T05:01:19.970Z,99.90
2023-02-28T05:03:47.095Z,99.90
2023-02-28T05:06:14.155Z,99.90
2023-02-28T05:08:41.389Z,99.90
2023-02-28T05:11:14.685Z,99.90
2023-02-28T05:13:41.633Z,99.90
2023-02-28T05:16:08.599Z,99.90
2023-02-28T05:18:35.418Z,99.90
2023-02-28T05:21:04.941Z,99.90
2023-02-28T05:23:31.876Z,99.90
2023-02-28T05:25:58.787Z,99.90
2023-02-28T05:28:25.762Z,99.90
2023-02-28T05:30:52.580Z,99.90
2023-02-28T05:33:19.773Z,99.90
2023-02-28T05:35:46.701Z,99.90
2023-02-28T05:38:13.538Z,99.90
2023-02-28T05:40:41.343Z,99.90
2023-02-28T05:43:11.262Z,99.90
2023-02-28T05:45:38.303Z,99.90
2023-02-28T05:48:05.580Z,99.90
2023-02-28T05:50:32.466Z,99.90
2023-02-28T05:52:59.668Z,99.90
2023-02-28T05:55:26.781Z,99.90
2023-02-28T05:57:53.609Z,99.90
2023-02-28T06:00:20.780Z,99.90
2023-02-28T06:02:47.726Z,99.90
2023-02-28T06:05:16.392Z,99.90
2023-02-28T06:07:43.813Z,99.90
2023-02-28T06:10:14.220Z,99.90
2023-02-28T06:12:42.573Z,99.90
2023-02-28T06:15:14.584Z,99.90
2023-02-28T06:17:42.788Z,99.90
2023-02-28T06:20:11.631Z,99.90
2023-02-28T06:22:38.485Z,99.90
2023-02-28T06:25:06.645Z,99.90
2023-02-28T06:27:34.686Z,99.90
2023-02-28T06:30:02.074Z,99.90
2023-02-28T06:32:29.022Z,99.90
2023-02-28T06:34:55.952Z,99.90
2023-02-28T06:37:22.793Z,99.90
2023-02-28T06:39:49.636Z,99.90
2023-02-28T06:42:16.597Z,99.90
2023-02-28T06:44:44.249Z,99.90
2023-02-28T06:47:11.186Z,99.90
2023-02-28T06:49:38.135Z,99.90
2023-02-28T06:52:05.390Z,99.90
2023-02-28T06:54:32.217Z,99.90
2023-02-28T06:56:59.698Z,99.90
2023-02-28T06:59:27.050Z,99.90
2023-02-28T07:01:56.519Z,99.90
2023-02-28T07:04:23.743Z,99.90
2023-02-28T07:06:50.845Z,99.90
2023-02-28T07:09:18.118Z,99.90
2023-02-28T07:11:45.064Z,99.90
2023-02-28T07:14:11.999Z,99.90
2023-02-28T07:16:38.932Z,99.90
2023-02-28T07:19:06.195Z,99.90
2023-02-28T07:21:33.340Z,99.90
2023-02-28T07:24:03.317Z,99.90
2023-02-28T07:26:30.171Z,99.90
2023-02-28T07:28:57.145Z,99.90
2023-02-28T07:31:24.191Z,99.90
2023-02-28T07:33:51.673Z,99.90
2023-02-28T07:36:19.918Z,99.90
2023-02-28T07:38:49.173Z,99.90
2023-02-28T07:41:18.192Z,99.90
2023-02-28T07:43:45.650Z,99.90
2023-02-28T07:46:16.565Z,99.90
2023-02-28T07:48:44.900Z,99.90
2023-02-28T07:51:15.127Z,99.90
2023-02-28T07:53:41.982Z,99.90
2023-02-28T07:56:14.668Z,99.90
2023-02-28T07:58:43.554Z,99.90
2023-02-28T08:01:11.220Z,99.90
2023-02-28T08:03:44.102Z,99.90
2023-02-28T08:06:17.761Z,99.90
2023-02-28T08:08:45.380Z,99.90
2023-02-28T08:11:12.282Z,99.90
2023-02-28T08:13:39.272Z,99.90
2023-02-28T08:16:06.652Z,99.90
2023-02-28T08:18:34.045Z,99.90
2023-02-28T08:21:01.129Z,99.90
2023-02-28T08:23:28.264Z,99.90
2023-02-28T08:25:58.054Z,99.90
2023-02-28T08:28:27.283Z,99.90
2023-02-28T08:31:05.685Z,99.90
2023-02-28T08:33:33.854Z,99.90
2023-02-28T08:36:03.471Z,99.90
2023-02-28T08:38:30.438Z,99.90
2023-02-28T08:41:02.510Z,99.90
2023-02-28T08:43:29.839Z,99.90
2023-02-28T08:46:02.776Z,99.90
2023-02-28T08:48:31.232Z,99.90
2023-02-28T08:51:08.170Z,99.90
2023-02-28T08:53:40.430Z,99.90
2023-02-28T08:56:12.199Z,99.90
2023-02-28T08:58:39.369Z,99.90
2023-02-28T09:01:11.671Z,99.90
2023-02-28T09:03:39.027Z,99.90
2023-02-28T09:06:06.142Z,99.90
2023-02-28T09:08:33.019Z,99.90
2023-02-28T09:11:02.308Z,99.90
2023-02-28T09:13:29.818Z,99.90
2023-02-28T09:16:01.202Z,99.90
2023-02-28T09:18:28.078Z,99.90
2023-02-28T09:20:55.109Z,99.90
2023-02-28T09:23:22.224Z,99.90
2023-02-28T09:25:51.280Z,99.90
2023-02-28T09:28:18.402Z,99.90
2023-02-28T09:30:46.708Z,99.90
2023-02-28T09:33:14.409Z,99.90
2023-02-28T09:35:42.012Z,99.90
2023-02-28T09:38:08.954Z,99.90
2023-02-28T09:40:47.497Z,99.90
2023-02-28T09:43:15.694Z,99.90
2023-02-28T09:45:44.182Z,99.90
2023-02-28T09:48:16.523Z,99.90
2023-02-28T09:50:46.025Z,99.90
2023-02-28T09:53:35.174Z,99.90
2023-02-28T09:56:07.850Z,99.90
2023-02-28T09:58:47.448Z,99.90
2023-02-28T10:01:54.642Z,99.90
2023-02-28T10:04:56.178Z,99.90
2023-02-28T10:07:44.020Z,99.90
2023-02-28T10:10:29.292Z,99.90
2023-02-28T10:12:57.466Z,99.90
2023-02-28T10:15:25.806Z,99.90
2023-02-28T10:18:08.375Z,99.90
2023-02-28T10:20:38.400Z,99.90
2023-02-28T10:23:17.366Z,99.90
2023-02-28T10:25:55.385Z,99.90
2023-02-28T10:28:22.285Z,99.90
2023-02-28T10:30:53.754Z,99.90
2023-02-28T10:33:30.684Z,99.90
2023-02-28T10:35:58.017Z,99.90
2023-02-28T10:38:44.490Z,99.90
2023-02-28T10:41:13.723Z,99.90
2023-02-28T10:43:44.290Z,99.90
2023-02-28T10:46:11.297Z,99.90
2023-02-28T10:48:43.823Z,99.90
2023-02-28T10:51:15.693Z,99.50
2023-02-28T10:54:02.947Z,98.90
2023-02-28T10:56:31.403Z,97.90
2023-02-28T10:59:00.320Z,97.00
2023-02-28T11:01:33.813Z,96.80
2023-02-28T11:04:00.987Z,96.00
2023-02-28T11:06:32.939Z,94.80
2023-02-28T11:09:08.007Z,94.10
2023-02-28T11:11:43.562Z,95.10
2023-02-28T11:14:28.995Z,95.60
2023-02-28T11:16:56.015Z,95.10
2023-02-28T11:19:28.322Z,93.30
2023-02-28T11:22:00.361Z,91.50
2023-02-28T11:24:43.399Z,90.60
2023-02-28T11:27:31.923Z,90.90
2023-02-28T11:29:59.611Z,90.30
2023-02-28T11:32:31.562Z,88.70
2023-02-28T11:35:03.335Z,86.20
2023-02-28T11:37:30.384Z,84.30
2023-02-28T11:39:57.551Z,82.80
2023-02-28T11:43:02.464Z,83.20
2023-02-28T11:45:39.183Z,82.90
2023-02-28T11:48:24.308Z,83.00
2023-02-28T11:51:09.377Z,81.60
2023-02-28T11:53:49.104Z,81.10
2023-02-28T11:56:21.973Z,80.10
2023-02-28T11:59:07.283Z,79.30
2023-02-28T12:02:11.861Z,78.70
2023-02-28T12:04:57.934Z,76.80
2023-02-28T12:07:26.900Z,76.70
2023-02-28T12:09:59.381Z,76.70
2023-02-28T12:12:47.431Z,74.80
2023-02-28T12:15:45.535Z,84.80
2023-02-28T12:18:30.851Z,71.30
2023-02-28T12:21:26.508Z,70.70
2023-02-28T12:24:17.992Z,68.60
2023-02-28T12:26:48.288Z,67.10
2023-02-28T12:31:57.761Z,99.90
2023-02-28T12:34:28.914Z,64.30
2023-02-28T12:36:56.184Z,63.40
2023-02-28T12:39:41.677Z,62.50
2023-02-28T12:42:20.666Z,61.30
2023-02-28T12:44:50.502Z,60.50
2023-02-28T12:47:18.459Z,60.60
2023-02-28T12:49:53.614Z,60.00
2023-02-28T12:52:29.881Z,58.60
2023-02-28T12:55:29.993Z,58.30
2023-02-28T12:58:35.817Z,57.60
2023-02-28T13:01:32.282Z,58.40
2023-02-28T13:04:24.579Z,59.00
2023-02-28T13:07:14.496Z,58.50
2023-02-28T13:09:41.385Z,58.50
2023-02-28T13:12:15.070Z,58.40
2023-02-28T13:14:42.062Z,58.50
2023-02-28T13:17:15.098Z,58.10
2023-02-28T13:19:48.720Z,57.60
2023-02-28T13:22:21.669Z,56.10
2023-02-28T13:24:57.127Z,55.40
2023-02-28T13:27:34.207Z,54.70
2023-02-28T13:30:01.204Z,54.40
2023-02-28T13:32:34.067Z,53.70
2023-02-28T13:35:01.119Z,53.50
2023-02-28T13:37:30.612Z,53.20
2023-02-28T13:40:02.339Z,53.10
2023-02-28T13:42:32.072Z,53.50
2023-02-28T13:45:05.169Z,53.60
2023-02-28T13:47:43.693Z,53.40
2023-02-28T13:50:27.758Z,52.90
2023-02-28T13:53:09.435Z,52.60
2023-02-28T13:55:39.734Z,52.70
2023-02-28T13:58:44.275Z,52.80
2023-02-28T14:01:26.443Z,52.70
2023-02-28T14:04:12.049Z,52.40
2023-02-28T14:06:39.497Z,52.30
2023-02-28T14:09:12.828Z,52.20
2023-02-28T14:11:41.473Z,51.90
2023-02-28T14:14:10.475Z,51.70
2023-02-28T14:16:42.244Z,51.80
2023-02-28T14:19:28.767Z,51.70
2023-02-28T14:22:17.420Z,51.90
2023-02-28T14:25:02.819Z,51.80
2023-02-28T14:27:38.969Z,52.20
2023-02-28T14:30:33.244Z,53.20
2023-02-28T14:33:23.162Z,53.90
2023-02-28T14:36:11.883Z,54.80
2023-02-28T14:38:53.057Z,55.70
2023-02-28T14:41:40.816Z,56.90
2023-02-28T14:44:15.265Z,57.60
2023-02-28T14:46:42.897Z,58.40
2023-02-28T14:49:24.840Z,59.10
2023-02-28T14:51:51.947Z,59.80
2023-02-28T14:54:20.776Z,60.30
2023-02-28T14:56:50.070Z,60.70
2023-02-28T14:59:33.729Z,61.20
2023-02-28T15:02:23.203Z,61.70
2023-02-28T15:05:11.729Z,61.80
2023-02-28T15:07:39.376Z,61.80
2023-02-28T15:10:22.444Z,62.00
2023-02-28T15:12:55.125Z,62.00
2023-02-28T15:15:28.187Z,62.30
2023-02-28T15:18:04.781Z,62.90
2023-02-28T15:20:31.962Z,63.10
2023-02-28T15:22:58.968Z,63.20
2023-02-28T15:25:26.153Z,63.30
2023-02-28T15:27:54.717Z,63.60
2023-02-28T15:30:29.889Z,63.90
2023-02-28T15:33:24.001Z,64.20
2023-02-28T15:35:51.033Z,64.30
2023-02-28T15:38:27.522Z,64.60
2023-02-28T15:40:56.018Z,65.20
2023-02-28T15:43:32.546Z,65.40
2023-02-28T15:46:07.371Z,65.90
2023-02-28T15:48:37.873Z,66.30
2023-02-28T15:51:21.347Z,66.60
2023-02-28T15:53:51.077Z,66.80
2023-02-28T15:56:31.685Z,67.10
2023-02-28T15:59:03.853Z,67.50
2023-02-28T16:01:33.513Z,67.80
2023-02-28T16:04:18.053Z,68.10
2023-02-28T16:06:45.983Z,68.50
2023-02-28T16:09:15.201Z,68.80
2023-02-28T16:11:50.286Z,68.90
2023-02-28T16:14:19.765Z,69.10
2023-02-28T16:16:52.650Z,69.30
2023-02-28T16:19:21.590Z,69.50
2023-02-28T16:21:48.702Z,69.90
2023-02-28T16:24:15.533Z,70.30
2023-02-28T16:26:42.994Z,70.70
2023-02-28T16:29:10.797Z,71.10
2023-02-28T16:31:38.795Z,71.40
2023-02-28T16:34:06.237Z,71.70
2023-02-28T16:36:33.118Z,72.10
2023-02-28T16:38:59.993Z,72.40
2023-02-28T16:41:28.329Z,72.60
2023-02-28T16:43:59.801Z,73.00
2023-02-28T16:46:28.985Z,73.30
2023-02-28T16:48:55.952Z,73.70
2023-02-28T16:51:22.735Z,74.00
2023-02-28T16:53:49.805Z,74.30
2023-02-28T16:56:25.409Z,74.60
2023-02-28T16:58:52.687Z,75.00
2023-02-28T17:01:22.847Z,75.40
2023-02-28T17:03:50.626Z,75.70
2023-02-28T17:06:23.378Z,76.20
2023-02-28T17:08:53.369Z,76.80
2023-02-28T17:11:20.608Z,77.40
2023-02-28T17:13:48.436Z,77.80
2023-02-28T17:16:24.041Z,78.70
2023-02-28T17:18:51.787Z,79.20
2023-02-28T17:21:18.605Z,80.10
2023-02-28T17:23:45.443Z,80.60
2023-02-28T17:26:22.151Z,81.10
2023-02-28T17:28:49.447Z,81.80
2023-02-28T17:31:32.949Z,82.60
2023-02-28T17:33:59.849Z,83.40
2023-02-28T17:36:28.825Z,84.00
2023-02-28T17:38:56.308Z,84.70
2023-02-28T17:41:23.227Z,85.50
2023-02-28T17:43:51.478Z,86.30
2023-02-28T17:46:21.503Z,87.10
2023-02-28T17:48:52.326Z,87.90
2023-02-28T17:51:20.635Z,88.80
2023-02-28T17:53:49.194Z,89.60
2023-02-28T17:56:19.230Z,90.20
2023-02-28T17:58:47.192Z,90.50
2023-02-28T18:01:14.117Z,90.90
2023-02-28T18:03:40.952Z,91.20
2023-02-28T18:06:08.195Z,91.50
2023-02-28T18:08:36.146Z,91.90
2023-02-28T18:11:03.184Z,92.30
2023-02-28T18:13:29.986Z,92.60
2023-02-28T18:15:56.807Z,92.90
2023-02-28T18:18:23.600Z,93.20
2023-02-28T18:20:50.919Z,93.50
2023-02-28T18:23:21.504Z,93.80
2023-02-28T18:25:48.299Z,94.20
2023-02-28T18:28:15.082Z,94.60
2023-02-28T18:30:42.760Z,94.90
2023-02-28T18:33:10.705Z,95.10
2023-02-28T18:35:37.646Z,95.30
2023-02-28T18:38:15.864Z,95.60
2023-02-28T18:40:43.358Z,95.90
2023-02-28T18:43:10.214Z,96.20
2023-02-28T18:45:39.831Z,96.50
2023-02-28T18:48:06.708Z,96.80
2023-02-28T18:50:33.466Z,97.00
2023-02-28T18:53:00.338Z,97.20
2023-02-28T18:55:27.869Z,97.40
2023-02-28T18:57:54.779Z,97.70
2023-02-28T19:00:22.634Z,97.90
2023-02-28T19:02:50.608Z,98.10
2023-02-28T19:05:18.421Z,98.60
2023-02-28T19:07:45.979Z,98.90
2023-02-28T19:10:13.412Z,99.20
2023-02-28T19:12:42.808Z,99.20
2023-02-28T19:15:10.446Z,99.30
2023-02-28T19:17:37.512Z,99.40
2023-02-28T19:20:08.011Z,99.60
2023-02-28T19:22:34.809Z,99.80
2023-02-28T19:25:01.614Z,99.90
2023-02-28T19:27:28.433Z,99.90
2023-02-28T19:29:55.744Z,99.90
2023-02-28T19:32:22.630Z,99.90
2023-02-28T19:34:49.585Z,99.90
2023-02-28T19:37:16.569Z,99.90
2023-02-28T19:39:44.450Z,99.90
2023-02-28T19:42:16.481Z,99.90
2023-02-28T19:44:43.983Z,99.90
2023-02-28T19:47:11.162Z,99.90
2023-02-28T19:49:38.446Z,99.90
2023-02-28T19:52:05.660Z,99.90
2023-02-28T19:54:34.357Z,99.90
2023-02-28T19:57:01.961Z,99.90
2023-02-28T19:59:38.338Z,99.90
2023-02-28T20:02:07.005Z,99.90
2023-02-28T20:04:33.911Z,99.90
2023-02-28T20:07:00.760Z,99.90
2023-02-28T20:09:31.250Z,99.90
2023-02-28T20:11:59.569Z,99.90
2023-02-28T20:14:26.640Z,99.90
2023-02-28T20:16:53.895Z,99.90
2023-02-28T20:19:21.777Z,99.90
2023-02-28T20:21:48.574Z,99.90
2023-02-28T20:24:15.385Z,99.90
2023-02-28T20:26:42.284Z,99.90
2023-02-28T20:29:09.261Z,99.90
2023-02-28T20:31:39.733Z,99.90
2023-02-28T20:34:06.644Z,99.90
2023-02-28T20:36:33.525Z,99.90
2023-02-28T20:39:00.630Z,99.90
2023-02-28T20:41:27.815Z,99.90
2023-02-28T20:43:55.845Z,99.90
2023-02-28T20:46:22.724Z,99.90
2023-02-28T20:48:49.537Z,99.90
2023-02-28T20:51:16.565Z,99.90
2023-02-28T20:53:43.548Z,99.90
2023-02-28T20:56:16.118Z,99.90
2023-02-28T20:58:44.966Z,99.90
2023-02-28T21:01:18.149Z,99.90
2023-02-28T21:03:49.481Z,99.90
2023-02-28T21:06:18.342Z,99.90
2023-02-28T21:08:45.262Z,99.90
2023-02-28T21:11:16.947Z,99.90
2023-02-28T21:13:44.540Z,99.90
2023-02-28T21:16:13.585Z,99.90
2023-02-28T21:18:40.439Z,99.90
2023-02-28T21:21:09.739Z,99.90
2023-02-28T21:23:36.519Z,99.90
2023-02-28T21:26:11.034Z,99.90
2023-02-28T21:28:38.673Z,99.90
2023-02-28T21:31:07.682Z,99.90
2023-02-28T21:33:37.133Z,99.90
2023-02-28T21:36:14.238Z,99.90
2023-02-28T21:38:41.543Z,99.90
2023-02-28T21:41:10.430Z,99.90
2023-02-28T21:43:37.323Z,99.90
2023-02-28T21:46:16.487Z,99.90
2023-02-28T21:48:43.876Z,99.90
2023-02-28T21:51:13.836Z,99.90
2023-02-28T21:53:41.046Z,99.90
2023-02-28T21:56:19.477Z,99.90
2023-02-28T21:58:47.131Z,99.90
2023-02-28T22:01:23.238Z,99.90
2023-02-28T22:03:50.426Z,99.90
2023-02-28T22:06:22.671Z,99.90
2023-02-28T22:08:54.053Z,99.90
2023-02-28T22:11:21.817Z,99.90
2023-02-28T22:13:50.363Z,99.90
2023-02-28T22:16:21.811Z,99.90
2023-02-28T22:18:48.896Z,99.90
2023-02-28T22:21:16.878Z,99.90
2023-02-28T22:23:44.705Z,99.90
2023-02-28T22:26:16.868Z,99.90
2023-02-28T22:28:44.088Z,99.90
2023-02-28T22:31:31.683Z,99.90
2023-02-28T22:34:01.230Z,99.90
2023-02-28T22:36:28.802Z,99.90
2023-02-28T22:38:57.587Z,99.90
2023-02-28T22:41:24.707Z,99.90
2023-02-28T22:43:54.036Z,99.90
2023-02-28T22:46:21.512Z,99.90
2023-02-28T22:48:48.917Z,99.90
2023-02-28T22:51:21.011Z,99.90
2023-02-28T22:53:48.780Z,99.90
2023-02-28T22:56:17.476Z,99.90
2023-02-28T22:58:48.342Z,99.90
2023-02-28T23:01:16.837Z,99.90
2023-02-28T23:03:43.831Z,99.90
2023-02-28T23:06:23.994Z,99.90
2023-02-28T23:08:52.350Z,99.90
2023-02-28T23:11:21.557Z,99.90
2023-02-28T23:13:58.402Z,99.90
2023-02-28T23:16:31.624Z,99.90
2023-02-28T23:19:02.990Z,99.90
2023-02-28T23:21:30.577Z,99.90
2023-02-28T23:23:57.492Z,99.90
2023-02-28T23:26:24.919Z,99.90
2023-02-28T23:28:51.842Z,99.90
2023-02-28T23:31:19.079Z,99.90
2023-02-28T23:33:46.275Z,99.90
2023-02-28T23:36:15.180Z,99.90
2023-02-28T23:38:47.320Z,99.90
2023-02-28T23:41:14.742Z,99.90
2023-02-28T23:43:43.847Z,99.90
2023-02-28T23:46:11.803Z,99.90
2023-02-28T23:48:39.337Z,99.90
2023-02-28T23:51:09.491Z,99.90
2023-02-28T23:53:38.217Z,99.90
2023-02-28T23:56:09.780Z,99.90
2023-02-28T23:58:36.951Z,99.90
